createdAt,value
2019-01-09T00:00:48.556Z,994.67
2019-01-09T00:01:48.562Z,994.69
2019-01-09T00:02:48.540Z,994.69
2019-01-09T00:03:48.530Z,994.60
2019-01-09T00:04:48.520Z,994.70
2019-01-09T00:05:48.495Z,994.72
2019-01-09T00:06:48.513Z,994.63
2019-01-09T00:07:48.532Z,994.70
2019-01-09T00:08:48.486Z,994.70
2019-01-09T00:09:48.469Z,994.72
2019-01-09T00:10:48.446Z,994.67
2019-01-09T00:11:48.441Z,994.73
2019-01-09T00:12:48.427Z,994.71
2019-01-09T00:13:48.489Z,994.71
2019-01-09T00:14:48.399Z,994.70
2019-01-09T00:15:48.393Z,994.74
2019-01-09T00:16:48.393Z,994.68
2019-01-09T00:17:48.378Z,994.74
2019-01-09T00:18:48.356Z,994.72
2019-01-09T00:19:48.376Z,994.71
2019-01-09T00:20:48.337Z,994.73
2019-01-09T00:21:48.321Z,994.72
2019-01-09T00:22:48.311Z,994.76
2019-01-09T00:23:48.366Z,994.73
2019-01-09T00:24:48.289Z,994.74
2019-01-09T00:25:48.306Z,994.73
2019-01-09T00:26:48.275Z,994.77
2019-01-09T00:27:48.263Z,994.78
2019-01-09T00:28:48.243Z,994.76
2019-01-09T00:29:48.232Z,994.79
2019-01-09T00:30:48.260Z,994.78
2019-01-09T00:31:48.212Z,994.81
2019-01-09T00:32:48.222Z,994.74
2019-01-09T00:33:48.188Z,994.81
2019-01-09T00:34:48.214Z,994.81
2019-01-09T00:35:48.209Z,994.78
2019-01-09T00:36:48.155Z,994.72
2019-01-09T00:37:48.152Z,994.82
2019-01-09T00:38:48.152Z,994.77
2019-01-09T00:39:48.127Z,994.80
2019-01-09T00:40:48.113Z,994.80
2019-01-09T00:41:48.137Z,994.78
2019-01-09T00:42:48.092Z,994.82
2019-01-09T00:43:48.079Z,994.83
2019-01-09T00:44:48.073Z,994.78
2019-01-09T00:45:48.063Z,994.84
2019-01-09T00:46:48.050Z,994.82
2019-01-09T00:47:48.098Z,994.82
2019-01-09T00:48:48.031Z,994.86
2019-01-09T00:49:48.012Z,994.89
2019-01-09T00:50:48.003Z,994.89
2019-01-09T00:51:47.990Z,994.84
2019-01-09T00:52:47.992Z,994.91
2019-01-09T00:53:47.985Z,994.94
2019-01-09T00:54:47.961Z,994.89
2019-01-09T00:55:47.947Z,994.96
2019-01-09T00:56:47.942Z,994.87
2019-01-09T00:57:47.943Z,994.92
2019-01-09T00:58:47.915Z,994.99
2019-01-09T00:59:47.910Z,995.03
2019-01-09T01:00:47.896Z,994.97
2019-01-09T01:01:47.880Z,995.05
2019-01-09T01:02:47.903Z,995.00
2019-01-09T01:03:48.453Z,994.98
2019-01-09T01:04:47.858Z,995.02
2019-01-09T01:05:47.869Z,995.05
2019-01-09T01:06:47.829Z,995.02
2019-01-09T01:07:47.815Z,995.07
2019-01-09T01:08:47.827Z,995.07
2019-01-09T01:09:47.793Z,995.10
2019-01-09T01:10:47.793Z,995.13
2019-01-09T01:11:47.771Z,995.11
2019-01-09T01:12:47.764Z,995.13
2019-01-09T01:13:47.761Z,995.09
2019-01-09T01:14:47.741Z,995.16
2019-01-09T01:15:47.731Z,995.14
2019-01-09T01:16:47.719Z,995.19
2019-01-09T01:17:47.704Z,995.13
2019-01-09T01:18:47.709Z,995.19
2019-01-09T01:19:47.684Z,995.19
2019-01-09T01:20:47.676Z,995.22
2019-01-09T01:21:47.663Z,995.17
2019-01-09T01:22:47.651Z,995.16
2019-01-09T01:23:47.682Z,995.22
2019-01-09T01:24:47.629Z,995.24
2019-01-09T01:25:47.617Z,995.28
2019-01-09T01:26:48.300Z,995.29
2019-01-09T01:27:47.598Z,995.28
2019-01-09T01:28:47.593Z,995.34
2019-01-09T01:29:47.591Z,995.33
2019-01-09T01:30:47.593Z,995.33
2019-01-09T01:31:47.551Z,995.36
2019-01-09T01:32:47.545Z,995.34
2019-01-09T01:33:47.533Z,995.43
2019-01-09T01:34:47.559Z,995.34
2019-01-09T01:35:54.645Z,995.37
2019-01-09T01:36:48.513Z,995.43
2019-01-09T01:37:47.486Z,995.40
2019-01-09T01:38:47.529Z,995.35
2019-01-09T01:39:47.464Z,995.42
2019-01-09T01:40:47.476Z,995.46
2019-01-09T01:41:47.444Z,995.50
2019-01-09T01:42:47.824Z,995.43
2019-01-09T01:43:47.420Z,995.46
2019-01-09T01:44:47.414Z,995.51
2019-01-09T01:45:47.403Z,995.48
2019-01-09T01:46:47.396Z,995.48
2019-01-09T01:47:47.402Z,995.52
2019-01-09T01:48:47.368Z,995.57
2019-01-09T01:49:47.353Z,995.52
2019-01-09T01:50:47.342Z,995.58
2019-01-09T01:51:47.334Z,995.52
2019-01-09T01:52:47.353Z,995.54
2019-01-09T01:53:47.318Z,995.57
2019-01-09T01:54:47.300Z,995.59
2019-01-09T01:55:47.293Z,995.55
2019-01-09T01:56:47.281Z,995.59
2019-01-09T01:57:47.272Z,995.63
2019-01-09T01:58:47.279Z,995.61
2019-01-09T01:59:47.247Z,995.58
2019-01-09T02:00:47.232Z,995.60
2019-01-09T02:01:47.223Z,995.69
2019-01-09T02:02:47.216Z,995.66
2019-01-09T02:03:47.232Z,995.73
2019-01-09T02:04:47.188Z,995.71
2019-01-09T02:05:47.185Z,995.71
2019-01-09T02:06:47.166Z,995.84
2019-01-09T02:07:47.162Z,995.84
2019-01-09T02:08:47.182Z,995.81
2019-01-09T02:09:47.135Z,995.84
2019-01-09T02:10:47.127Z,995.85
2019-01-09T02:11:47.113Z,995.89
2019-01-09T02:12:47.107Z,995.87
2019-01-09T02:13:47.096Z,995.93
2019-01-09T02:14:47.105Z,995.91
2019-01-09T02:15:47.069Z,995.93
2019-01-09T02:16:47.078Z,995.96
2019-01-09T02:17:47.051Z,995.95
2019-01-09T02:18:47.040Z,995.96
2019-01-09T02:19:47.025Z,995.96
2019-01-09T02:20:47.031Z,995.98
2019-01-09T02:21:47.003Z,995.96
2019-01-09T02:22:46.998Z,995.99
2019-01-09T02:23:46.986Z,995.96
2019-01-09T02:24:46.967Z,996.02
2019-01-09T02:25:47.050Z,996.06
2019-01-09T02:26:46.946Z,996.02
2019-01-09T02:27:46.944Z,996.11
2019-01-09T02:28:46.926Z,996.08
2019-01-09T02:29:46.959Z,996.10
2019-01-09T02:30:46.904Z,996.03
2019-01-09T02:31:46.944Z,996.10
2019-01-09T02:32:46.889Z,996.09
2019-01-09T02:33:46.872Z,996.08
2019-01-09T02:34:46.863Z,996.11
2019-01-09T02:35:46.850Z,996.15
2019-01-09T02:36:46.843Z,996.12
2019-01-09T02:37:46.844Z,996.18
2019-01-09T02:38:46.822Z,996.15
2019-01-09T02:39:46.807Z,996.18
2019-01-09T02:40:46.793Z,996.22
2019-01-09T02:41:46.795Z,996.17
2019-01-09T02:42:46.804Z,996.24
2019-01-09T02:43:46.767Z,996.20
2019-01-09T02:44:46.754Z,996.26
2019-01-09T02:45:46.741Z,996.27
2019-01-09T02:46:46.734Z,996.36
2019-01-09T02:47:46.877Z,996.29
2019-01-09T02:48:48.511Z,996.27
2019-01-09T02:49:46.700Z,996.27
2019-01-09T02:50:46.685Z,996.28
2019-01-09T02:51:47.317Z,996.33
2019-01-09T02:52:46.669Z,996.26
2019-01-09T02:53:46.668Z,996.26
2019-01-09T02:54:46.666Z,996.32
2019-01-09T02:55:46.638Z,996.36
2019-01-09T02:56:46.619Z,996.32
2019-01-09T02:57:57.059Z,996.32
2019-01-09T02:58:46.605Z,996.30
2019-01-09T02:59:46.608Z,996.31
2019-01-09T03:00:46.583Z,996.37
2019-01-09T03:01:46.565Z,996.34
2019-01-09T03:02:46.556Z,996.37
2019-01-09T03:03:46.542Z,996.35
2019-01-09T03:04:46.554Z,996.38
2019-01-09T03:05:46.517Z,996.37
2019-01-09T03:06:46.530Z,996.36
2019-01-09T03:07:46.503Z,996.38
2019-01-09T03:08:46.489Z,996.40
2019-01-09T03:09:46.474Z,996.39
2019-01-09T03:10:46.476Z,996.38
2019-01-09T03:11:46.453Z,996.34
2019-01-09T03:12:46.469Z,996.38
2019-01-09T03:13:46.437Z,996.47
2019-01-09T03:14:46.420Z,996.48
2019-01-09T03:15:46.409Z,996.43
2019-01-09T03:16:46.403Z,996.39
2019-01-09T03:17:46.388Z,996.46
2019-01-09T03:18:46.403Z,996.43
2019-01-09T03:19:46.365Z,996.49
2019-01-09T03:20:46.356Z,996.55
2019-01-09T03:21:46.368Z,996.49
2019-01-09T03:22:46.359Z,996.48
2019-01-09T03:23:46.338Z,996.45
2019-01-09T03:24:46.308Z,996.50
2019-01-09T03:25:46.361Z,996.53
2019-01-09T03:26:46.287Z,996.54
2019-01-09T03:27:46.289Z,996.54
2019-01-09T03:28:46.278Z,996.60
2019-01-09T03:29:46.267Z,996.57
2019-01-09T03:30:46.255Z,996.61
2019-01-09T03:31:46.234Z,996.61
2019-01-09T03:32:46.221Z,996.65
2019-01-09T03:33:46.232Z,996.58
2019-01-09T03:34:46.226Z,996.59
2019-01-09T03:35:46.187Z,996.67
2019-01-09T03:36:46.183Z,996.66
2019-01-09T03:37:46.170Z,996.67
2019-01-09T03:38:46.205Z,996.68
2019-01-09T03:39:46.148Z,996.69
2019-01-09T03:40:46.134Z,996.70
2019-01-09T03:41:46.123Z,996.74
2019-01-09T03:42:46.117Z,996.76
2019-01-09T03:43:46.099Z,996.62
2019-01-09T03:44:46.126Z,996.73
2019-01-09T03:45:46.079Z,996.67
2019-01-09T03:46:46.079Z,996.82
2019-01-09T03:47:46.055Z,996.73
2019-01-09T03:48:46.045Z,996.74
2019-01-09T03:49:46.040Z,996.72
2019-01-09T03:50:46.098Z,996.74
2019-01-09T03:51:46.838Z,996.81
2019-01-09T03:52:46.007Z,996.74
2019-01-09T03:53:45.999Z,996.76
2019-01-09T03:54:45.984Z,996.80
2019-01-09T03:55:45.970Z,996.80
2019-01-09T03:56:45.977Z,996.77
2019-01-09T03:57:45.951Z,996.82
2019-01-09T03:58:45.958Z,996.85
2019-01-09T03:59:45.931Z,996.81
2019-01-09T04:00:45.914Z,996.81
2019-01-09T04:01:45.913Z,996.85
2019-01-09T04:02:45.907Z,996.84
2019-01-09T04:03:45.969Z,996.79
2019-01-09T04:04:45.879Z,996.89
2019-01-09T04:05:45.859Z,996.93
2019-01-09T04:06:45.876Z,996.85
2019-01-09T04:07:45.850Z,996.88
2019-01-09T04:08:45.834Z,996.94
2019-01-09T04:09:45.821Z,996.98
2019-01-09T04:10:45.805Z,996.91
2019-01-09T04:11:45.794Z,996.95
2019-01-09T04:12:45.816Z,997.00
2019-01-09T04:13:45.771Z,996.96
2019-01-09T04:14:45.766Z,996.89
2019-01-09T04:15:45.776Z,996.96
2019-01-09T04:16:45.753Z,997.01
2019-01-09T04:17:45.775Z,996.99
2019-01-09T04:18:45.723Z,997.02
2019-01-09T04:19:45.705Z,997.05
2019-01-09T04:20:45.702Z,997.06
2019-01-09T04:21:45.693Z,997.03
2019-01-09T04:22:45.678Z,997.05
2019-01-09T04:23:45.815Z,997.03
2019-01-09T04:24:45.666Z,997.04
2019-01-09T04:25:45.645Z,997.03
2019-01-09T04:26:45.628Z,997.07
2019-01-09T04:27:45.634Z,997.08
2019-01-09T04:28:45.631Z,997.06
2019-01-09T04:29:45.601Z,997.10
2019-01-09T04:30:45.625Z,997.13
2019-01-09T04:31:45.577Z,997.11
2019-01-09T04:32:45.567Z,997.14
2019-01-09T04:33:45.561Z,997.11
2019-01-09T04:34:45.545Z,997.07
2019-01-09T04:35:45.536Z,997.17
2019-01-09T04:36:51.428Z,997.17
2019-01-09T04:37:46.507Z,997.08
2019-01-09T04:38:45.503Z,997.12
2019-01-09T04:39:45.486Z,997.21
2019-01-09T04:40:47.559Z,997.12
2019-01-09T04:41:45.500Z,997.13
2019-01-09T04:42:45.453Z,997.09
2019-01-09T04:43:45.447Z,997.12
2019-01-09T04:44:45.440Z,997.17
2019-01-09T04:45:45.418Z,997.18
2019-01-09T04:46:45.413Z,997.15
2019-01-09T04:47:45.414Z,997.14
2019-01-09T04:48:45.392Z,997.11
2019-01-09T04:49:45.377Z,997.23
2019-01-09T04:50:45.375Z,997.14
2019-01-09T04:51:45.385Z,997.17
2019-01-09T04:52:45.364Z,997.17
2019-01-09T04:53:45.331Z,997.20
2019-01-09T04:54:45.326Z,997.18
2019-01-09T04:55:45.309Z,997.21
2019-01-09T04:56:45.336Z,997.22
2019-01-09T04:57:45.288Z,997.22
2019-01-09T04:58:45.281Z,997.18
2019-01-09T04:59:45.265Z,997.24
2019-01-09T05:00:45.260Z,997.24
2019-01-09T05:01:45.248Z,997.19
2019-01-09T05:02:45.254Z,997.22
2019-01-09T05:03:45.242Z,997.25
2019-01-09T05:04:45.211Z,997.24
2019-01-09T05:05:45.200Z,997.27
2019-01-09T05:06:45.230Z,997.30
2019-01-09T05:07:45.180Z,997.24
2019-01-09T05:08:45.184Z,997.29
2019-01-09T05:09:45.156Z,997.24
2019-01-09T05:10:45.144Z,997.28
2019-01-09T05:11:45.133Z,997.37
2019-01-09T05:12:45.156Z,997.31
2019-01-09T05:13:45.156Z,997.26
2019-01-09T05:14:45.102Z,997.34
2019-01-09T05:15:45.089Z,997.32
2019-01-09T05:16:45.085Z,997.32
2019-01-09T05:17:45.066Z,997.39
2019-01-09T05:18:45.055Z,997.41
2019-01-09T05:19:45.077Z,997.41
2019-01-09T05:20:45.042Z,997.39
2019-01-09T05:21:45.028Z,997.40
2019-01-09T05:22:45.013Z,997.44
2019-01-09T05:23:45.007Z,997.41
2019-01-09T05:24:45.714Z,997.47
2019-01-09T05:25:44.992Z,997.49
2019-01-09T05:26:44.968Z,997.38
2019-01-09T05:27:44.962Z,997.46
2019-01-09T05:28:44.952Z,997.47
2019-01-09T05:29:44.941Z,997.49
2019-01-09T05:30:44.941Z,997.52
2019-01-09T05:31:44.926Z,997.51
2019-01-09T05:32:44.908Z,997.47
2019-01-09T05:33:44.901Z,997.52
2019-01-09T05:34:44.890Z,997.48
2019-01-09T05:35:44.891Z,997.56
2019-01-09T05:36:44.864Z,997.51
2019-01-09T05:37:44.855Z,997.54
2019-01-09T05:38:44.841Z,997.57
2019-01-09T05:39:44.833Z,997.54
2019-01-09T05:40:44.821Z,997.55
2019-01-09T05:41:44.821Z,997.52
2019-01-09T05:42:44.798Z,997.59
2019-01-09T05:43:44.792Z,997.58
2019-01-09T05:44:44.771Z,997.62
2019-01-09T05:45:44.764Z,997.62
2019-01-09T05:46:44.800Z,997.57
2019-01-09T05:47:44.826Z,997.57
2019-01-09T05:48:44.735Z,997.64
2019-01-09T05:49:44.720Z,997.67
2019-01-09T05:50:44.711Z,997.65
2019-01-09T05:51:44.705Z,997.66
2019-01-09T05:52:44.725Z,997.71
2019-01-09T05:53:44.670Z,997.68
2019-01-09T05:54:44.662Z,997.71
2019-01-09T05:55:44.653Z,997.68
2019-01-09T05:56:44.683Z,997.71
2019-01-09T05:57:44.627Z,997.72
2019-01-09T05:58:44.641Z,997.74
2019-01-09T05:59:44.606Z,997.79
2019-01-09T06:00:44.598Z,997.72
2019-01-09T06:01:44.592Z,997.81
2019-01-09T06:02:44.590Z,997.80
2019-01-09T06:03:44.560Z,997.80
2019-01-09T06:04:44.549Z,997.80
2019-01-09T06:05:44.540Z,997.83
2019-01-09T06:06:44.561Z,997.83
2019-01-09T06:07:44.522Z,997.79
2019-01-09T06:08:44.512Z,997.83
2019-01-09T06:09:44.563Z,997.87
2019-01-09T06:10:44.508Z,997.91
2019-01-09T06:11:44.480Z,997.90
2019-01-09T06:12:44.471Z,997.89
2019-01-09T06:13:44.470Z,997.91
2019-01-09T06:14:44.445Z,997.94
2019-01-09T06:15:44.433Z,997.97
2019-01-09T06:16:44.427Z,998.01
2019-01-09T06:17:44.414Z,998.02
2019-01-09T06:18:44.409Z,997.99
2019-01-09T06:19:44.406Z,998.04
2019-01-09T06:20:44.374Z,998.05
2019-01-09T06:21:44.387Z,998.04
2019-01-09T06:22:44.373Z,998.00
2019-01-09T06:23:44.346Z,998.01
2019-01-09T06:24:44.442Z,998.05
2019-01-09T06:25:44.321Z,998.08
2019-01-09T06:26:44.326Z,998.06
2019-01-09T06:27:44.305Z,998.05
2019-01-09T06:28:44.297Z,998.12
2019-01-09T06:29:44.281Z,998.15
2019-01-09T06:30:44.278Z,998.13
2019-01-09T06:31:44.276Z,998.10
2019-01-09T06:32:44.248Z,998.17
2019-01-09T06:33:44.306Z,998.23
2019-01-09T06:34:44.225Z,998.15
2019-01-09T06:35:44.221Z,998.19
2019-01-09T06:36:44.265Z,998.19
2019-01-09T06:37:44.188Z,998.19
2019-01-09T06:38:44.183Z,998.24
2019-01-09T06:39:44.171Z,998.29
2019-01-09T06:40:44.156Z,998.30
2019-01-09T06:41:44.142Z,998.27
2019-01-09T06:42:44.154Z,998.25
2019-01-09T06:43:44.120Z,998.25
2019-01-09T06:44:44.109Z,998.31
2019-01-09T06:45:44.111Z,998.30
2019-01-09T06:46:44.093Z,998.31
2019-01-09T06:47:44.114Z,998.29
2019-01-09T06:48:44.072Z,998.38
2019-01-09T06:49:44.062Z,998.36
2019-01-09T06:50:44.047Z,998.35
2019-01-09T06:51:44.064Z,998.36
2019-01-09T06:52:44.021Z,998.34
2019-01-09T06:53:44.050Z,998.34
2019-01-09T06:54:44.010Z,998.32
2019-01-09T06:55:44.031Z,998.29
2019-01-09T06:56:43.986Z,998.37
2019-01-09T06:57:43.968Z,998.34
2019-01-09T06:58:43.990Z,998.36
2019-01-09T06:59:43.965Z,998.30
2019-01-09T07:00:43.934Z,998.35
2019-01-09T07:01:43.941Z,998.36
2019-01-09T07:02:43.918Z,998.32
2019-01-09T07:03:43.901Z,998.41
2019-01-09T07:04:44.786Z,998.41
2019-01-09T07:05:43.884Z,998.47
2019-01-09T07:06:43.872Z,998.51
2019-01-09T07:07:43.871Z,998.56
2019-01-09T07:08:43.847Z,998.47
2019-01-09T07:09:43.837Z,998.53
2019-01-09T07:10:43.842Z,998.50
2019-01-09T07:11:43.818Z,998.54
2019-01-09T07:12:43.801Z,998.53
2019-01-09T07:13:43.792Z,998.58
2019-01-09T07:14:43.787Z,998.63
2019-01-09T07:15:43.778Z,998.60
2019-01-09T07:16:43.763Z,998.67
2019-01-09T07:17:43.748Z,998.67
2019-01-09T07:18:43.735Z,998.68
2019-01-09T07:19:43.890Z,998.70
2019-01-09T07:20:43.712Z,998.61
2019-01-09T07:21:45.752Z,998.63
2019-01-09T07:22:43.692Z,998.73
2019-01-09T07:23:43.680Z,998.71
2019-01-09T07:24:43.753Z,998.74
2019-01-09T07:25:43.703Z,998.76
2019-01-09T07:26:43.663Z,998.73
2019-01-09T07:27:43.645Z,998.78
2019-01-09T07:28:43.626Z,998.77
2019-01-09T07:29:43.618Z,998.79
2019-01-09T07:30:43.608Z,998.85
2019-01-09T07:31:43.602Z,998.87
2019-01-09T07:32:43.581Z,998.89
2019-01-09T07:33:43.575Z,998.90
2019-01-09T07:34:43.558Z,998.92
2019-01-09T07:35:43.562Z,998.91
2019-01-09T07:36:43.579Z,998.87
2019-01-09T07:37:45.352Z,998.93
2019-01-09T07:38:43.514Z,998.95
2019-01-09T07:39:43.518Z,998.94
2019-01-09T07:40:43.498Z,998.99
2019-01-09T07:41:43.486Z,998.99
2019-01-09T07:42:43.514Z,999.07
2019-01-09T07:43:43.548Z,999.05
2019-01-09T07:44:43.631Z,999.04
2019-01-09T07:45:43.445Z,999.04
2019-01-09T07:46:43.428Z,999.05
2019-01-09T07:47:43.416Z,999.07
2019-01-09T07:48:43.413Z,999.09
2019-01-09T07:49:43.395Z,999.08
2019-01-09T07:50:43.382Z,999.12
2019-01-09T07:51:43.370Z,999.20
2019-01-09T07:52:43.367Z,999.15
2019-01-09T07:53:43.385Z,999.17
2019-01-09T07:54:43.338Z,999.17
2019-01-09T07:55:43.330Z,999.21
2019-01-09T07:56:43.327Z,999.23
2019-01-09T07:57:43.306Z,999.17
2019-01-09T07:58:43.298Z,999.23
2019-01-09T07:59:43.306Z,999.25
2019-01-09T08:00:43.278Z,999.32
2019-01-09T08:01:43.261Z,999.26
2019-01-09T08:02:43.252Z,999.29
2019-01-09T08:03:43.236Z,999.33
2019-01-09T08:04:43.368Z,999.29
2019-01-09T08:05:43.214Z,999.39
2019-01-09T08:06:43.877Z,999.37
2019-01-09T08:07:43.200Z,999.36
2019-01-09T08:08:43.243Z,999.37
2019-01-09T08:09:43.177Z,999.39
2019-01-09T08:10:43.183Z,999.39
2019-01-09T08:11:43.155Z,999.41
2019-01-09T08:12:43.140Z,999.43
2019-01-09T08:13:43.128Z,999.44
2019-01-09T08:14:43.123Z,999.46
2019-01-09T08:15:43.128Z,999.42
2019-01-09T08:16:43.098Z,999.45
2019-01-09T08:17:43.084Z,999.50
2019-01-09T08:18:43.072Z,999.50
2019-01-09T08:19:43.067Z,999.48
2019-01-09T08:20:43.080Z,999.52
2019-01-09T08:21:43.045Z,999.59
2019-01-09T08:22:43.028Z,999.70
2019-01-09T08:23:43.015Z,999.60
2019-01-09T08:24:43.006Z,999.70
2019-01-09T08:25:43.028Z,999.66
2019-01-09T08:26:43.024Z,999.66
2019-01-09T08:27:42.980Z,999.68
2019-01-09T08:28:42.967Z,999.74
2019-01-09T08:29:42.959Z,999.74
2019-01-09T08:30:42.944Z,999.76
2019-01-09T08:31:42.951Z,999.81
2019-01-09T08:32:42.951Z,999.72
2019-01-09T08:33:42.913Z,999.75
2019-01-09T08:34:42.894Z,999.81
2019-01-09T08:35:42.890Z,999.81
2019-01-09T08:36:42.905Z,999.78
2019-01-09T08:37:42.919Z,999.85
2019-01-09T08:38:42.858Z,999.85
2019-01-09T08:39:42.845Z,999.89
2019-01-09T08:40:42.834Z,999.82
2019-01-09T08:41:42.817Z,999.96
2019-01-09T08:42:42.813Z,999.88
2019-01-09T08:43:42.820Z,999.92
2019-01-09T08:44:42.784Z,999.91
2019-01-09T08:45:42.815Z,1000.00
2019-01-09T08:46:42.763Z,999.99
2019-01-09T08:47:42.751Z,999.99
2019-01-09T08:48:42.764Z,1000.08
2019-01-09T08:49:42.745Z,1000.05
2019-01-09T08:50:42.719Z,1000.07
2019-01-09T08:51:42.715Z,1000.06
2019-01-09T08:52:43.379Z,1000.12
2019-01-09T08:53:42.710Z,1000.17
2019-01-09T08:54:42.720Z,1000.15
2019-01-09T08:55:42.663Z,1000.20
2019-01-09T08:56:42.657Z,1000.20
2019-01-09T08:57:51.897Z,1000.18
2019-01-09T08:58:42.636Z,1000.28
2019-01-09T08:59:42.650Z,1000.25
2019-01-09T09:00:42.643Z,1000.21
2019-01-09T09:01:42.603Z,1000.23
2019-01-09T09:02:42.587Z,1000.28
2019-01-09T09:03:42.576Z,1000.29
2019-01-09T09:04:42.587Z,1000.35
2019-01-09T09:05:42.575Z,1000.30
2019-01-09T09:06:42.548Z,1000.32
2019-01-09T09:07:42.530Z,1000.40
2019-01-09T09:08:42.522Z,1000.41
2019-01-09T09:09:42.530Z,1000.41
2019-01-09T09:10:42.500Z,1000.44
2019-01-09T09:11:42.511Z,1000.47
2019-01-09T09:12:42.484Z,1000.46
2019-01-09T09:13:42.468Z,1000.54
2019-01-09T09:14:42.467Z,1000.45
2019-01-09T09:15:42.440Z,1000.45
2019-01-09T09:16:42.434Z,1000.60
2019-01-09T09:17:42.436Z,1000.55
2019-01-09T09:18:42.413Z,1000.64
2019-01-09T09:19:42.400Z,1000.61
2019-01-09T09:20:42.408Z,1000.58
2019-01-09T09:21:42.380Z,1000.66
2019-01-09T09:22:42.362Z,1000.67
2019-01-09T09:23:42.370Z,1000.67
2019-01-09T09:24:42.347Z,1000.74
2019-01-09T09:25:42.333Z,1000.72
2019-01-09T09:26:42.357Z,1000.74
2019-01-09T09:27:42.311Z,1000.71
2019-01-09T09:28:42.301Z,1000.70
2019-01-09T09:29:42.289Z,1000.77
2019-01-09T09:30:42.283Z,1000.80
2019-01-09T09:31:42.338Z,1000.75
2019-01-09T09:32:42.252Z,1000.82
2019-01-09T09:33:42.245Z,1000.78
2019-01-09T09:34:42.228Z,1000.84
2019-01-09T09:35:42.223Z,1000.83
2019-01-09T09:36:42.206Z,1000.82
2019-01-09T09:37:42.316Z,1000.84
2019-01-09T09:38:42.186Z,1000.87
2019-01-09T09:39:42.189Z,1000.85
2019-01-09T09:40:42.173Z,1000.86
2019-01-09T09:41:42.151Z,1000.97
2019-01-09T09:42:42.144Z,1000.94
2019-01-09T09:43:42.170Z,1000.94
2019-01-09T09:44:42.133Z,1000.98
2019-01-09T09:45:42.107Z,1000.94
2019-01-09T09:46:42.101Z,1000.96
2019-01-09T09:47:42.084Z,1001.06
2019-01-09T09:48:42.098Z,1001.08
2019-01-09T09:49:42.061Z,1001.06
2019-01-09T09:50:42.056Z,1001.00
2019-01-09T09:51:42.051Z,1001.11
2019-01-09T09:52:42.035Z,1001.06
2019-01-09T09:53:42.068Z,1001.07
2019-01-09T09:54:42.010Z,1001.10
2019-01-09T09:55:42.002Z,1001.12
2019-01-09T09:56:42.003Z,1001.11
2019-01-09T09:57:41.982Z,1001.17
2019-01-09T09:58:41.967Z,1001.10
2019-01-09T09:59:43.580Z,1001.21
2019-01-09T10:00:41.944Z,1001.20
2019-01-09T10:01:41.930Z,1001.18
2019-01-09T10:02:41.920Z,1001.18
2019-01-09T10:03:41.915Z,1001.24
2019-01-09T10:04:42.026Z,1001.18
2019-01-09T10:05:41.885Z,1001.27
2019-01-09T10:06:41.876Z,1001.31
2019-01-09T10:07:41.864Z,1001.36
2019-01-09T10:08:41.857Z,1001.33
2019-01-09T10:09:41.860Z,1001.41
2019-01-09T10:10:41.874Z,1001.40
2019-01-09T10:11:41.821Z,1001.44
2019-01-09T10:12:41.819Z,1001.38
2019-01-09T10:13:41.832Z,1001.41
2019-01-09T10:14:41.791Z,1001.35
2019-01-09T10:15:41.799Z,1001.47
2019-01-09T10:16:41.771Z,1001.43
2019-01-09T10:17:41.758Z,1001.43
2019-01-09T10:18:41.752Z,1001.40
2019-01-09T10:19:41.736Z,1001.50
2019-01-09T10:20:41.742Z,1001.47
2019-01-09T10:21:41.755Z,1001.53
2019-01-09T10:22:41.706Z,1001.50
2019-01-09T10:23:41.727Z,1001.55
2019-01-09T10:24:41.688Z,1001.58
2019-01-09T10:25:41.666Z,1001.57
2019-01-09T10:26:41.696Z,1001.58
2019-01-09T10:27:41.647Z,1001.57
2019-01-09T10:28:41.633Z,1001.51
2019-01-09T10:29:41.622Z,1001.57
2019-01-09T10:30:41.609Z,1001.64
2019-01-09T10:31:41.634Z,1001.63
2019-01-09T10:32:41.614Z,1001.62
2019-01-09T10:33:41.594Z,1001.57
2019-01-09T10:34:41.573Z,1001.66
2019-01-09T10:35:41.563Z,1001.66
2019-01-09T10:36:41.549Z,1001.71
2019-01-09T10:37:41.565Z,1001.71
2019-01-09T10:38:41.523Z,1001.67
2019-01-09T10:39:41.517Z,1001.68
2019-01-09T10:40:41.505Z,1001.78
2019-01-09T10:41:41.500Z,1001.76
2019-01-09T10:42:41.504Z,1001.72
2019-01-09T10:43:41.473Z,1001.74
2019-01-09T10:44:41.456Z,1001.72
2019-01-09T10:45:41.444Z,1001.77
2019-01-09T10:46:41.451Z,1001.79
2019-01-09T10:47:41.448Z,1001.81
2019-01-09T10:48:41.443Z,1001.78
2019-01-09T10:49:41.408Z,1001.78
2019-01-09T10:50:41.422Z,1001.78
2019-01-09T10:51:41.379Z,1001.85
2019-01-09T10:52:41.368Z,1001.84
2019-01-09T10:53:41.404Z,1001.84
2019-01-09T10:54:41.353Z,1001.82
2019-01-09T10:55:41.334Z,1001.81
2019-01-09T10:56:41.325Z,1001.78
2019-01-09T10:57:41.317Z,1001.82
2019-01-09T10:58:41.309Z,1001.82
2019-01-09T10:59:41.323Z,1001.80
2019-01-09T11:00:41.281Z,1001.86
2019-01-09T11:01:41.275Z,1001.84
2019-01-09T11:02:41.272Z,1001.83
2019-01-09T11:03:41.250Z,1001.84
2019-01-09T11:04:41.261Z,1001.81
2019-01-09T11:05:41.243Z,1001.86
2019-01-09T11:06:41.249Z,1001.83
2019-01-09T11:07:41.208Z,1001.81
2019-01-09T11:08:46.898Z,1001.88
2019-01-09T11:09:42.187Z,1001.88
2019-01-09T11:10:41.190Z,1001.84
2019-01-09T11:11:41.163Z,1001.86
2019-01-09T11:12:41.158Z,1001.93
2019-01-09T11:13:41.139Z,1001.84
2019-01-09T11:14:41.133Z,1001.86
2019-01-09T11:15:41.137Z,1001.95
2019-01-09T11:16:41.108Z,1001.89
2019-01-09T11:17:41.098Z,1001.90
2019-01-09T11:18:41.084Z,1001.81
2019-01-09T11:19:41.076Z,1002.00
2019-01-09T11:20:41.107Z,1001.97
2019-01-09T11:21:41.053Z,1001.99
2019-01-09T11:22:41.039Z,1001.96
2019-01-09T11:23:41.033Z,1002.01
2019-01-09T11:24:41.018Z,1002.00
2019-01-09T11:25:41.011Z,1002.08
2019-01-09T11:26:41.028Z,1002.14
2019-01-09T11:27:40.984Z,1002.10
2019-01-09T11:28:40.973Z,1002.12
2019-01-09T11:29:40.975Z,1002.11
2019-01-09T11:30:40.950Z,1002.13
2019-01-09T11:31:40.983Z,1002.18
2019-01-09T11:32:40.938Z,1002.18
2019-01-09T11:33:40.949Z,1002.04
2019-01-09T11:34:40.906Z,1002.14
2019-01-09T11:35:40.902Z,1002.07
2019-01-09T11:36:40.890Z,1002.06
2019-01-09T11:37:40.913Z,1002.13
2019-01-09T11:38:40.867Z,1002.10
2019-01-09T11:39:40.856Z,1002.19
2019-01-09T11:40:40.845Z,1002.24
2019-01-09T11:41:40.828Z,1002.27
2019-01-09T11:42:40.821Z,1002.23
2019-01-09T11:43:40.832Z,1002.19
2019-01-09T11:44:40.803Z,1002.20
2019-01-09T11:45:40.783Z,1002.29
2019-01-09T11:46:40.779Z,1002.22
2019-01-09T11:47:40.821Z,1002.20
2019-01-09T11:48:40.766Z,1002.22
2019-01-09T11:49:40.763Z,1002.21
2019-01-09T11:50:40.736Z,1002.28
2019-01-09T11:51:40.720Z,1002.23
2019-01-09T11:52:40.708Z,1002.18
2019-01-09T11:53:40.700Z,1002.27
2019-01-09T11:54:41.661Z,1002.28
2019-01-09T11:55:40.752Z,1002.31
2019-01-09T11:56:40.669Z,1002.34
2019-01-09T11:57:40.710Z,1002.37
2019-01-09T11:58:40.653Z,1002.29
2019-01-09T11:59:40.640Z,1002.33
2019-01-09T12:00:42.717Z,1002.46
2019-01-09T12:01:40.609Z,1002.42
2019-01-09T12:02:40.600Z,1002.45
2019-01-09T12:03:40.597Z,1002.49
2019-01-09T12:04:40.582Z,1002.46
2019-01-09T12:05:40.596Z,1002.54
2019-01-09T12:06:40.559Z,1002.43
2019-01-09T12:07:40.551Z,1002.47
2019-01-09T12:08:40.538Z,1002.49
2019-01-09T12:09:40.520Z,1002.46
2019-01-09T12:10:40.532Z,1002.48
2019-01-09T12:11:40.533Z,1002.47
2019-01-09T12:12:40.494Z,1002.48
2019-01-09T12:13:40.476Z,1002.57
2019-01-09T12:14:40.466Z,1002.55
2019-01-09T12:15:40.453Z,1002.56
2019-01-09T12:16:40.482Z,1002.60
2019-01-09T12:17:40.435Z,1002.58
2019-01-09T12:18:40.427Z,1002.64
2019-01-09T12:19:40.416Z,1002.59
2019-01-09T12:20:40.405Z,1002.65
2019-01-09T12:21:40.398Z,1002.66